createdAt,value
2022-08-04T00:01:40.702Z,24.74
2022-08-04T00:04:43.759Z,24.67
2022-08-04T00:07:44.775Z,24.60
2022-08-04T00:10:17.310Z,24.67
2022-08-04T00:12:51.141Z,24.63
2022-08-04T00:15:20.062Z,24.35
2022-08-04T00:18:03.822Z,24.33
2022-08-04T00:20:37.920Z,24.45
2022-08-04T00:23:07.670Z,24.51
2022-08-04T00:25:39.679Z,24.51
2022-08-04T00:28:06.717Z,24.32
2022-08-04T00:30:34.164Z,24.34
2022-08-04T00:33:02.028Z,24.38
2022-08-04T00:35:29.906Z,24.23
2022-08-04T00:37:58.298Z,24.13
2022-08-04T00:41:14.044Z,23.97
2022-08-04T00:44:25.470Z,23.97
2022-08-04T00:47:07.341Z,23.99
2022-08-04T00:49:58.160Z,23.94
2022-08-04T00:52:34.143Z,23.94
2022-08-04T00:55:12.435Z,23.76
2022-08-04T00:58:19.762Z,23.71
2022-08-04T01:04:11.327Z,23.63
2022-08-04T01:07:24.587Z,23.56
2022-08-04T01:10:14.266Z,23.56
2022-08-04T01:13:15.301Z,23.45
2022-08-04T01:16:08.021Z,23.43
2022-08-04T01:18:41.092Z,23.35
2022-08-04T01:21:29.068Z,23.30
2022-08-04T01:24:24.055Z,23.37
2022-08-04T01:27:05.655Z,23.39
2022-08-04T01:29:48.901Z,23.27
2022-08-04T01:32:25.565Z,23.25
2022-08-04T01:35:21.693Z,23.16
2022-08-04T01:38:28.393Z,23.18
2022-08-04T01:41:00.411Z,23.24
2022-08-04T01:43:32.549Z,23.01
2022-08-04T01:46:01.960Z,23.14
2022-08-04T01:48:30.103Z,23.12
2022-08-04T01:51:06.333Z,23.14
2022-08-04T01:53:39.851Z,23.15
2022-08-04T01:56:09.908Z,22.96
2022-08-04T01:58:39.206Z,23.04
2022-08-04T02:01:12.690Z,22.91
2022-08-04T02:04:18.174Z,22.98
2022-08-04T02:07:19.835Z,22.93
2022-08-04T02:10:06.325Z,22.86
2022-08-04T02:13:03.629Z,22.93
2022-08-04T02:16:15.070Z,22.83
2022-08-04T02:19:14.633Z,22.82
2022-08-04T02:21:43.903Z,22.76
2022-08-04T02:24:18.634Z,22.71
2022-08-04T02:26:53.232Z,22.62
2022-08-04T02:29:31.740Z,22.72
2022-08-04T02:32:05.495Z,22.69
2022-08-04T02:35:25.645Z,22.70
2022-08-04T02:38:06.550Z,22.70
2022-08-04T02:40:34.052Z,22.60
2022-08-04T02:43:05.404Z,22.59
2022-08-04T02:45:37.668Z,22.51
2022-08-04T02:48:23.647Z,22.55
2022-08-04T02:50:54.654Z,22.44
2022-08-04T02:53:23.259Z,22.32
2022-08-04T02:55:56.368Z,22.25
2022-08-04T02:58:26.162Z,22.13
2022-08-04T03:00:53.257Z,22.06
2022-08-04T03:03:20.305Z,21.94
2022-08-04T03:06:13.362Z,21.77
2022-08-04T03:09:00.458Z,21.72
2022-08-04T03:11:58.127Z,21.88
2022-08-04T03:14:55.511Z,22.00
2022-08-04T03:18:08.631Z,21.89
2022-08-04T03:21:15.593Z,21.81
2022-08-04T03:24:27.597Z,21.86
2022-08-04T03:27:10.168Z,21.87
2022-08-04T03:30:03.390Z,21.62
2022-08-04T03:32:55.440Z,21.74
2022-08-04T03:35:34.333Z,21.63
2022-08-04T03:38:44.145Z,21.67
2022-08-04T03:42:20.356Z,21.24
2022-08-04T03:45:35.099Z,21.37
2022-08-04T03:48:48.408Z,21.39
2022-08-04T03:52:11.098Z,21.44
2022-08-04T03:55:06.170Z,21.24
2022-08-04T03:57:57.654Z,21.45
2022-08-04T04:00:36.515Z,21.65
2022-08-04T04:03:52.694Z,21.73
2022-08-04T04:06:53.813Z,21.86
2022-08-04T04:09:22.431Z,21.77
2022-08-04T04:12:14.282Z,21.84
2022-08-04T04:15:14.785Z,21.61
2022-08-04T04:18:09.755Z,21.46
2022-08-04T04:21:01.004Z,21.78
2022-08-04T04:23:58.788Z,21.86
2022-08-04T04:27:03.501Z,21.65
2022-08-04T04:29:59.420Z,21.54
2022-08-04T04:33:07.799Z,21.75
2022-08-04T04:35:59.916Z,21.90
2022-08-04T04:39:09.238Z,22.08
2022-08-04T04:41:54.366Z,22.46
2022-08-04T04:45:15.064Z,22.45
2022-08-04T04:48:14.275Z,22.65
2022-08-04T04:51:08.990Z,22.94
2022-08-04T04:54:06.769Z,23.01
2022-08-04T04:57:17.741Z,23.38
2022-08-04T05:00:09.344Z,23.27
2022-08-04T05:03:09.368Z,22.65
2022-08-04T05:06:17.406Z,23.21
2022-08-04T05:09:41.019Z,23.39
2022-08-04T05:14:30.842Z,23.52
2022-08-04T05:15:22.670Z,23.59
2022-08-04T05:17:55.473Z,23.70
2022-08-04T05:20:34.537Z,23.79
2022-08-04T05:23:23.319Z,23.83
2022-08-04T05:26:06.532Z,23.93
2022-08-04T05:28:39.998Z,24.14
2022-08-04T05:31:24.588Z,24.22
2022-08-04T05:34:03.278Z,24.44
2022-08-04T05:36:49.712Z,24.46
2022-08-04T05:39:25.359Z,24.57
2022-08-04T05:41:55.804Z,24.87
2022-08-04T05:44:28.270Z,24.66
2022-08-04T05:46:58.589Z,25.30
2022-08-04T05:49:28.974Z,26.10
2022-08-04T05:52:01.329Z,27.23
2022-08-04T05:54:31.615Z,27.69
2022-08-04T05:57:00.058Z,28.96
2022-08-04T05:59:29.399Z,29.20
2022-08-04T06:02:00.067Z,29.68
2022-08-04T06:04:40.101Z,30.16
2022-08-04T06:07:11.277Z,30.87
2022-08-04T06:09:38.430Z,31.85
2022-08-04T06:12:14.852Z,32.25
2022-08-04T06:14:48.819Z,32.52
2022-08-04T06:19:58.941Z,31.28
2022-08-04T06:20:23.245Z,32.97
2022-08-04T06:22:57.541Z,33.18
2022-08-04T06:25:45.216Z,33.95
2022-08-04T06:28:13.433Z,34.13
2022-08-04T06:30:41.346Z,33.03
2022-08-04T06:33:33.661Z,34.16
2022-08-04T06:36:20.847Z,35.17
2022-08-04T06:38:50.785Z,35.50
2022-08-04T06:41:28.952Z,36.14
2022-08-04T06:44:01.459Z,33.18
2022-08-04T06:46:30.302Z,33.52
2022-08-04T06:48:58.304Z,35.07
2022-08-04T06:51:35.550Z,36.07
2022-08-04T06:54:05.287Z,35.71
2022-08-04T06:56:34.810Z,35.41
2022-08-04T06:59:03.620Z,33.74
2022-08-04T07:01:32.255Z,34.64
2022-08-04T07:04:00.089Z,36.28
2022-08-04T07:06:27.332Z,36.18
2022-08-04T07:08:56.488Z,36.79
2022-08-04T07:11:24.616Z,38.14
2022-08-04T07:13:52.417Z,36.80
2022-08-04T07:16:21.960Z,36.96
2022-08-04T07:18:58.365Z,37.19
2022-08-04T07:21:39.613Z,37.68
2022-08-04T07:24:07.085Z,37.95
2022-08-04T07:26:34.944Z,38.48
2022-08-04T07:29:02.166Z,35.81
2022-08-04T07:31:33.707Z,36.24
2022-08-04T07:34:16.614Z,36.89
2022-08-04T07:36:51.299Z,34.79
2022-08-04T07:39:28.031Z,35.17
2022-08-04T07:41:58.733Z,36.27
2022-08-04T07:44:26.200Z,34.74
2022-08-04T07:46:54.133Z,35.67
2022-08-04T07:49:56.043Z,36.10
2022-08-04T07:52:09.745Z,35.13
2022-08-04T07:54:39.176Z,37.20
2022-08-04T07:57:06.263Z,35.77
2022-08-04T07:59:33.568Z,36.85
2022-08-04T08:02:02.505Z,35.72
2022-08-04T08:04:30.387Z,35.91
2022-08-04T08:06:58.925Z,37.16
2022-08-04T08:09:26.675Z,35.85
2022-08-04T08:12:38.226Z,35.98
2022-08-04T08:14:43.684Z,35.82
2022-08-04T08:17:10.783Z,36.83
2022-08-04T08:19:38.492Z,36.67
2022-08-04T08:22:06.047Z,35.85
2022-08-04T08:24:37.201Z,36.68
2022-08-04T08:27:06.939Z,36.57
2022-08-04T08:29:35.637Z,39.06
2022-08-04T08:32:08.051Z,37.89
2022-08-04T08:34:36.160Z,38.01
2022-08-04T08:37:18.588Z,38.67
2022-08-04T08:40:40.453Z,39.14
2022-08-04T08:44:36.373Z,38.34
2022-08-04T08:48:06.291Z,38.24
2022-08-04T08:51:40.454Z,39.28
2022-08-04T08:54:33.877Z,38.50
2022-08-04T08:57:22.007Z,38.07
2022-08-04T09:00:03.158Z,40.17
2022-08-04T09:02:48.807Z,41.10
2022-08-04T09:06:01.684Z,41.46
2022-08-04T09:08:49.547Z,41.28
2022-08-04T09:11:26.219Z,42.19
2022-08-04T09:14:12.985Z,41.43
2022-08-04T09:16:54.296Z,41.25
2022-08-04T09:19:38.850Z,38.34
2022-08-04T09:22:24.416Z,39.27
2022-08-04T09:25:08.888Z,40.30
2022-08-04T09:27:50.248Z,39.05
2022-08-04T09:30:22.124Z,38.59
2022-08-04T09:33:16.227Z,38.19
2022-08-04T09:35:46.580Z,36.23
2022-08-04T09:38:51.905Z,36.57
2022-08-04T09:42:26.089Z,36.71
2022-08-04T09:45:26.666Z,36.82
2022-08-04T09:48:10.121Z,37.50
2022-08-04T09:50:49.999Z,38.44
2022-08-04T09:53:51.896Z,39.23
2022-08-04T09:56:52.044Z,38.05
2022-08-04T09:59:36.025Z,37.21
2022-08-04T10:02:09.550Z,38.23
2022-08-04T10:04:39.561Z,38.29
2022-08-04T10:07:28.352Z,36.44
2022-08-04T10:10:30.515Z,37.55
2022-08-04T10:13:31.440Z,37.24
2022-08-04T10:16:23.179Z,39.26
2022-08-04T10:19:27.099Z,37.02
2022-08-04T10:22:29.063Z,38.91
2022-08-04T10:26:03.167Z,39.58
2022-08-04T10:28:15.724Z,38.02
2022-08-04T10:30:51.919Z,37.19
2022-08-04T10:33:47.383Z,38.22
2022-08-04T10:36:19.841Z,36.67
2022-08-04T10:39:06.076Z,36.14
2022-08-04T10:42:15.967Z,36.35
2022-08-04T10:45:18.089Z,37.16
2022-08-04T10:48:34.414Z,37.32
2022-08-04T10:51:57.598Z,36.41
2022-08-04T10:56:07.778Z,35.95
2022-08-04T10:58:47.792Z,36.45
2022-08-04T11:01:59.545Z,38.30
2022-08-04T11:04:47.526Z,37.65
2022-08-04T11:07:15.552Z,36.61
2022-08-04T11:09:45.625Z,37.76
2022-08-04T11:12:25.494Z,36.39
2022-08-04T11:15:14.845Z,37.83
2022-08-04T11:17:50.334Z,37.80
2022-08-04T11:20:35.548Z,37.63
2022-08-04T11:23:18.209Z,38.76
2022-08-04T11:26:15.597Z,37.66
2022-08-04T11:29:16.766Z,37.69
2022-08-04T11:31:51.819Z,37.42
2022-08-04T11:34:27.831Z,37.58
2022-08-04T11:37:14.671Z,37.05
2022-08-04T11:40:04.102Z,36.57
2022-08-04T11:42:37.061Z,37.10
2022-08-04T11:45:25.106Z,35.93
2022-08-04T11:48:05.888Z,35.94
2022-08-04T11:50:45.136Z,36.22
2022-08-04T11:53:19.425Z,37.06
2022-08-04T11:56:06.898Z,36.16
2022-08-04T11:58:36.342Z,35.76
2022-08-04T12:01:58.258Z,36.75
2022-08-04T12:05:00.005Z,36.54
2022-08-04T12:07:48.835Z,37.31
2022-08-04T12:10:37.896Z,38.00
2022-08-04T12:13:42.064Z,36.48
2022-08-04T12:16:22.913Z,35.89
2022-08-04T12:19:01.520Z,36.14
2022-08-04T12:21:50.289Z,35.80
2022-08-04T12:25:05.203Z,34.96
2022-08-04T12:27:48.009Z,35.91
2022-08-04T12:31:02.581Z,36.37
2022-08-04T12:34:03.522Z,35.34
2022-08-04T12:36:45.203Z,35.60
2022-08-04T12:39:17.941Z,35.81
2022-08-04T12:42:07.413Z,35.72
2022-08-04T12:44:42.898Z,35.66
2022-08-04T12:47:28.110Z,34.83
2022-08-04T12:50:03.614Z,34.49
2022-08-04T12:53:04.073Z,34.57
2022-08-04T12:55:35.358Z,34.10
2022-08-04T12:58:11.729Z,34.68
2022-08-04T13:02:07.512Z,33.90
2022-08-04T13:04:29.137Z,35.16
2022-08-04T13:07:13.996Z,34.88
2022-08-04T13:09:42.148Z,34.52
2022-08-04T13:12:15.347Z,35.69
2022-08-04T13:14:44.980Z,34.51
2022-08-04T13:17:12.684Z,35.88
2022-08-04T13:19:46.203Z,36.23
2022-08-04T13:22:23.361Z,35.90
2022-08-04T13:24:56.624Z,34.86
2022-08-04T13:27:48.290Z,35.83
2022-08-04T13:30:23.228Z,35.95
2022-08-04T13:33:00.779Z,34.86
2022-08-04T13:35:54.282Z,35.81
2022-08-04T13:38:18.217Z,35.04
2022-08-04T13:40:46.677Z,34.39
2022-08-04T13:44:15.399Z,34.77
2022-08-04T13:46:37.012Z,34.41
2022-08-04T13:52:10.937Z,34.43
2022-08-04T13:54:47.713Z,35.25
2022-08-04T13:57:31.919Z,34.14
2022-08-04T14:00:09.698Z,34.38
2022-08-04T14:02:52.877Z,34.79
2022-08-04T14:05:59.247Z,34.39
2022-08-04T14:08:31.509Z,33.88
2022-08-04T14:10:58.759Z,34.80
2022-08-04T14:13:41.750Z,35.34
2022-08-04T14:16:27.436Z,35.46
2022-08-04T14:19:01.973Z,35.46
2022-08-04T14:21:35.589Z,34.71
2022-08-04T14:24:02.975Z,34.94
2022-08-04T14:26:34.089Z,34.50
2022-08-04T14:29:26.424Z,34.64
2022-08-04T14:32:03.110Z,34.62
2022-08-04T14:34:33.489Z,35.00
2022-08-04T14:37:17.323Z,34.27
2022-08-04T14:40:08.783Z,34.61
2022-08-04T14:42:43.511Z,34.44
2022-08-04T14:45:12.157Z,34.87
2022-08-04T14:47:40.832Z,35.24
2022-08-04T14:50:10.018Z,35.15
2022-08-04T14:52:38.705Z,35.14
2022-08-04T14:55:22.264Z,35.02
2022-08-04T14:58:34.127Z,34.38
2022-08-04T15:00:40.199Z,34.85
2022-08-04T15:03:10.162Z,34.20
2022-08-04T15:06:01.676Z,33.77
2022-08-04T15:08:31.469Z,33.60
2022-08-04T15:11:02.799Z,33.99
2022-08-04T15:13:32.460Z,33.97
2022-08-04T15:16:06.876Z,34.07
2022-08-04T15:18:37.556Z,33.46
2022-08-04T15:21:20.467Z,33.86
2022-08-04T15:23:47.530Z,33.80
2022-08-04T15:26:25.798Z,34.29
2022-08-04T15:28:58.734Z,34.38
2022-08-04T15:32:06.829Z,33.84
2022-08-04T15:34:14.982Z,33.43
2022-08-04T15:36:57.142Z,33.64
2022-08-04T15:39:53.208Z,33.48
2022-08-04T15:42:49.515Z,33.35
2022-08-04T15:46:41.109Z,33.26
2022-08-04T15:48:13.458Z,33.69
2022-08-04T15:50:58.880Z,33.37
2022-08-04T15:54:01.340Z,33.05
2022-08-04T15:56:23.983Z,32.79
2022-08-04T15:58:55.159Z,33.27
2022-08-04T16:01:23.546Z,32.86
2022-08-04T16:04:00.611Z,33.10
2022-08-04T16:06:29.759Z,33.51
2022-08-04T16:09:02.998Z,33.55
2022-08-04T16:11:32.161Z,33.38
2022-08-04T16:13:59.527Z,33.10
2022-08-04T16:16:42.279Z,32.90
2022-08-04T16:19:10.719Z,32.67
2022-08-04T16:22:00.148Z,32.79
2022-08-04T16:24:42.215Z,32.97
2022-08-04T16:27:13.903Z,32.61
2022-08-04T16:29:43.869Z,32.37
2022-08-04T16:32:12.499Z,32.67
2022-08-04T16:35:04.174Z,32.90
2022-08-04T16:37:38.473Z,32.56
2022-08-04T16:40:34.041Z,32.62
2022-08-04T16:43:15.652Z,32.51
2022-08-04T16:46:00.397Z,32.67
2022-08-04T16:48:35.680Z,32.33
2022-08-04T16:51:07.131Z,32.81
2022-08-04T16:54:04.039Z,32.50
2022-08-04T16:56:34.189Z,32.45
2022-08-04T16:59:10.697Z,32.49
2022-08-04T17:01:49.087Z,32.32
2022-08-04T17:04:16.877Z,32.06
2022-08-04T17:06:46.711Z,32.14
2022-08-04T17:09:18.812Z,32.25
2022-08-04T17:11:48.865Z,32.67
2022-08-04T17:14:23.682Z,32.76
2022-08-04T17:16:52.758Z,32.37
2022-08-04T17:19:26.414Z,32.66
2022-08-04T17:22:20.726Z,32.09
2022-08-04T17:24:49.379Z,32.04
2022-08-04T17:28:06.130Z,32.32
2022-08-04T17:30:08.053Z,32.65
2022-08-04T17:32:35.198Z,31.95
2022-08-04T17:35:06.839Z,31.98
2022-08-04T17:37:39.051Z,32.00
2022-08-04T17:40:18.467Z,32.12
2022-08-04T17:43:01.238Z,32.37
2022-08-04T17:48:24.131Z,31.70
2022-08-04T17:50:52.558Z,32.03
2022-08-04T17:54:02.828Z,32.04
2022-08-04T17:56:51.908Z,31.80
2022-08-04T17:59:52.227Z,31.95
2022-08-04T18:02:08.875Z,31.69
2022-08-04T18:04:39.387Z,32.06
2022-08-04T18:08:40.019Z,31.72
2022-08-04T18:10:55.339Z,31.64
2022-08-04T18:13:25.922Z,31.51
2022-08-04T18:16:05.329Z,31.66
2022-08-04T18:18:33.113Z,31.41
2022-08-04T18:21:02.662Z,31.76
2022-08-04T18:23:32.198Z,31.55
2022-08-04T18:26:02.098Z,31.06
2022-08-04T18:28:30.665Z,31.12
2022-08-04T18:30:58.284Z,31.05
2022-08-04T18:33:39.557Z,31.09
2022-08-04T18:36:36.908Z,31.28
2022-08-04T18:39:11.945Z,30.88
2022-08-04T18:42:01.249Z,31.03
2022-08-04T18:44:29.344Z,31.02
2022-08-04T18:46:57.069Z,31.08
2022-08-04T18:50:31.823Z,31.00
2022-08-04T18:52:15.157Z,30.76
2022-08-04T18:54:43.855Z,30.78
2022-08-04T18:57:32.824Z,30.75
2022-08-04T18:59:58.798Z,30.45
2022-08-04T19:02:28.505Z,30.40
2022-08-04T19:04:56.617Z,30.29
2022-08-04T19:07:30.055Z,30.19
2022-08-04T19:09:58.484Z,30.18
2022-08-04T19:12:28.441Z,30.39
2022-08-04T19:17:54.149Z,30.11
2022-08-04T19:20:26.703Z,29.98
2022-08-04T19:24:11.559Z,29.93
2022-08-04T19:26:01.341Z,29.95
2022-08-04T19:28:36.238Z,30.11
2022-08-04T19:31:07.150Z,29.73
2022-08-04T19:33:58.358Z,29.75
2022-08-04T19:36:27.768Z,29.45
2022-08-04T19:38:57.905Z,29.79
2022-08-04T19:42:05.846Z,29.71
2022-08-04T19:44:34.032Z,29.51
2022-08-04T19:47:02.333Z,29.61
2022-08-04T19:52:35.827Z,29.44
2022-08-04T19:55:09.815Z,29.02
2022-08-04T19:57:46.189Z,29.29
2022-08-04T20:00:15.306Z,29.22
2022-08-04T20:02:42.409Z,29.08
2022-08-04T20:05:09.715Z,28.80
2022-08-04T20:07:36.976Z,28.99
2022-08-04T20:10:06.977Z,29.01
2022-08-04T20:12:34.805Z,29.08
2022-08-04T20:15:11.050Z,28.69
2022-08-04T20:18:07.426Z,28.50
2022-08-04T20:20:29.964Z,28.37
2022-08-04T20:22:57.689Z,28.39
2022-08-04T20:25:36.650Z,28.39
2022-08-04T20:28:05.533Z,28.45
2022-08-04T20:30:35.524Z,28.42
2022-08-04T20:33:04.292Z,28.15
2022-08-04T20:36:03.472Z,28.06
2022-08-04T20:38:33.405Z,28.24
2022-08-04T20:41:01.949Z,28.17
2022-08-04T20:43:31.411Z,27.99
2022-08-04T20:45:59.524Z,28.30
2022-08-04T20:48:33.579Z,28.12
2022-08-04T20:51:01.144Z,28.15
2022-08-04T20:53:32.490Z,27.81
2022-08-04T20:56:19.344Z,27.83
2022-08-04T20:58:59.460Z,27.73
2022-08-04T21:01:29.815Z,27.83
2022-08-04T21:04:27.319Z,28.08
2022-08-04T21:07:06.850Z,27.72
2022-08-04T21:09:38.387Z,27.70
2022-08-04T21:12:26.954Z,27.56
2022-08-04T21:15:00.103Z,27.71
2022-08-04T21:17:58.870Z,27.50
2022-08-04T21:20:16.916Z,27.57
2022-08-04T21:22:54.728Z,27.35
2022-08-04T21:25:22.416Z,27.53
2022-08-04T21:27:49.827Z,27.74
2022-08-04T21:30:25.153Z,27.41
2022-08-04T21:32:55.366Z,27.22
2022-08-04T21:35:30.815Z,27.28
2022-08-04T21:38:16.555Z,27.25
2022-08-04T21:40:56.153Z,27.35
2022-08-04T21:43:28.461Z,27.40
2022-08-04T21:45:58.030Z,27.19
2022-08-04T21:48:31.990Z,27.18
2022-08-04T21:51:13.559Z,27.08
2022-08-04T21:54:01.807Z,26.96
2022-08-04T21:56:29.175Z,27.00
2022-08-04T21:58:58.004Z,27.28
2022-08-04T22:01:51.781Z,27.11
2022-08-04T22:04:13.849Z,27.24
2022-08-04T22:06:42.354Z,27.02
2022-08-04T22:09:21.659Z,27.23
2022-08-04T22:11:51.090Z,26.76
2022-08-04T22:14:27.435Z,26.50
2022-08-04T22:16:57.756Z,26.78
2022-08-04T22:19:50.756Z,26.79
2022-08-04T22:22:25.974Z,26.58
2022-08-04T22:24:58.650Z,26.96
2022-08-04T22:27:47.441Z,26.55
2022-08-04T22:30:17.582Z,26.44
2022-08-04T22:32:48.654Z,26.48
2022-08-04T22:35:43.422Z,26.35
2022-08-04T22:38:20.664Z,26.44
2022-08-04T22:41:01.150Z,26.84
2022-08-04T22:43:31.763Z,26.50
2022-08-04T22:46:03.649Z,26.17
2022-08-04T22:48:37.296Z,26.37
2022-08-04T22:51:07.896Z,26.64
2022-08-04T22:53:36.073Z,26.57
2022-08-04T22:56:10.523Z,26.35
2022-08-04T22:58:45.155Z,26.37
2022-08-04T23:01:17.722Z,26.42
2022-08-04T23:03:55.274Z,26.22
2022-08-04T23:06:25.571Z,26.39
2022-08-04T23:08:55.527Z,26.10
2022-08-04T23:11:22.585Z,26.12
2022-08-04T23:13:49.685Z,26.17
2022-08-04T23:16:17.701Z,26.36
2022-08-04T23:18:48.395Z,26.12
2022-08-04T23:21:17.464Z,26.34
2022-08-04T23:24:00.832Z,26.21
2022-08-04T23:26:31.744Z,26.34
2022-08-04T23:28:59.145Z,26.29
2022-08-04T23:31:40.384Z,25.80
2022-08-04T23:34:09.326Z,26.06
2022-08-04T23:36:39.781Z,25.75
2022-08-04T23:39:07.342Z,25.91
2022-08-04T23:41:54.702Z,25.91
2022-08-04T23:44:28.161Z,25.73
2022-08-04T23:47:02.798Z,25.95
2022-08-04T23:49:44.421Z,25.64
2022-08-04T23:52:27.864Z,26.18
2022-08-04T23:55:01.033Z,25.86
2022-08-04T23:57:31.681Z,25.73
